sensor_id;sensor_type;location;lat;lon;timestamp;temperature;humidity
15241;DHT22;7723;52.170;9.978;2023-03-14T00:01:35;11.20;99.90
15241;DHT22;7723;52.170;9.978;2023-03-14T00:04:04;11.10;99.90
15241;DHT22;7723;52.170;9.978;2023-03-14T00:06:34;11.20;99.90
15241;DHT22;7723;52.170;9.978;2023-03-14T00:09:01;11.20;99.90
15241;DHT22;7723;52.170;9.978;2023-03-14T00:11:29;11.20;99.90
15241;DHT22;7723;52.170;9.978;2023-03-14T00:13:56;11.20;99.90
15241;DHT22;7723;52.170;9.978;2023-03-14T00:16:23;11.30;99.90
15241;DHT22;7723;52.170;9.978;2023-03-14T00:18:50;11.30;99.90
15241;DHT22;7723;52.170;9.978;2023-03-14T00:21:18;11.30;99.90
15241;DHT22;7723;52.170;9.978;2023-03-14T00:23:46;11.40;99.90
15241;DHT22;7723;52.170;9.978;2023-03-14T00:26:15;11.40;99.90
15241;DHT22;7723;52.170;9.978;2023-03-14T00:28:43;11.30;99.90
15241;DHT22;7723;52.170;9.978;2023-03-14T00:31:11;11.50;99.90
15241;DHT22;7723;52.170;9.978;2023-03-14T00:33:39;11.50;99.90
15241;DHT22;7723;52.170;9.978;2023-03-14T00:36:08;11.50;99.90
15241;DHT22;7723;52.170;9.978;2023-03-14T00:38:36;11.50;99.90
15241;DHT22;7723;52.170;9.978;2023-03-14T00:41:06;11.50;99.90
15241;DHT22;7723;52.170;9.978;2023-03-14T00:43:34;11.60;99.90
15241;DHT22;7723;52.170;9.978;2023-03-14T00:46:01;11.60;99.90
15241;DHT22;7723;52.170;9.978;2023-03-14T00:48:28;11.70;99.90
15241;DHT22;7723;52.170;9.978;2023-03-14T00:50:55;11.70;99.90
15241;DHT22;7723;52.170;9.978;2023-03-14T00:53:23;11.70;99.90
15241;DHT22;7723;52.170;9.978;2023-03-14T00:55:50;11.70;99.90
15241;DHT22;7723;52.170;9.978;2023-03-14T00:58:19;11.90;99.90
15241;DHT22;7723;52.170;9.978;2023-03-14T01:00:46;11.90;99.90
15241;DHT22;7723;52.170;9.978;2023-03-14T01:03:14;11.90;99.90
15241;DHT22;7723;52.170;9.978;2023-03-14T01:05:41;11.90;99.90
15241;DHT22;7723;52.170;9.978;2023-03-14T01:08:08;11.90;99.90
15241;DHT22;7723;52.170;9.978;2023-03-14T01:10:39;11.90;99.90
15241;DHT22;7723;52.170;9.978;2023-03-14T01:13:06;11.90;99.90
15241;DHT22;7723;52.170;9.978;2023-03-14T01:15:35;11.90;99.90
15241;DHT22;7723;52.170;9.978;2023-03-14T01:18:02;11.90;99.90
15241;DHT22;7723;52.170;9.978;2023-03-14T01:20:29;11.80;99.90
15241;DHT22;7723;52.170;9.978;2023-03-14T01:22:56;11.70;99.90
15241;DHT22;7723;52.170;9.978;2023-03-14T01:25:23;11.70;99.90
15241;DHT22;7723;52.170;9.978;2023-03-14T01:27:50;11.60;99.90
15241;DHT22;7723;52.170;9.978;2023-03-14T01:30:17;11.50;99.90
15241;DHT22;7723;52.170;9.978;2023-03-14T01:32:46;11.60;99.90
15241;DHT22;7723;52.170;9.978;2023-03-14T01:35:13;11.50;99.90
15241;DHT22;7723;52.170;9.978;2023-03-14T01:37:40;11.40;99.90
15241;DHT22;7723;52.170;9.978;2023-03-14T01:40:11;11.40;99.90
15241;DHT22;7723;52.170;9.978;2023-03-14T01:42:45;11.30;99.90
15241;DHT22;7723;52.170;9.978;2023-03-14T01:48:14;11.40;99.90
15241;DHT22;7723;52.170;9.978;2023-03-14T01:50:41;11.40;99.90
15241;DHT22;7723;52.170;9.978;2023-03-14T01:53:08;11.40;99.90
15241;DHT22;7723;52.170;9.978;2023-03-14T01:55:36;11.30;99.90
15241;DHT22;7723;52.170;9.978;2023-03-14T01:58:04;11.30;99.90
15241;DHT22;7723;52.170;9.978;2023-03-14T02:00:31;11.30;99.90
15241;DHT22;7723;52.170;9.978;2023-03-14T02:03:01;11.30;99.90
15241;DHT22;7723;52.170;9.978;2023-03-14T02:05:32;11.30;99.90
15241;DHT22;7723;52.170;9.978;2023-03-14T02:08:02;11.30;99.90
15241;DHT22;7723;52.170;9.978;2023-03-14T02:10:34;11.20;99.90
15241;DHT22;7723;52.170;9.978;2023-03-14T02:13:04;11.20;99.90
15241;DHT22;7723;52.170;9.978;2023-03-14T02:15:32;11.20;99.90
15241;DHT22;7723;52.170;9.978;2023-03-14T02:18:00;11.10;99.90
15241;DHT22;7723;52.170;9.978;2023-03-14T02:20:35;11.10;99.90
15241;DHT22;7723;52.170;9.978;2023-03-14T02:23:05;11.10;99.90
15241;DHT22;7723;52.170;9.978;2023-03-14T02:25:39;11.00;99.90
15241;DHT22;7723;52.170;9.978;2023-03-14T02:28:09;11.00;99.90
15241;DHT22;7723;52.170;9.978;2023-03-14T02:30:37;11.10;99.90
15241;DHT22;7723;52.170;9.978;2023-03-14T02:33:06;11.10;99.90
15241;DHT22;7723;52.170;9.978;2023-03-14T02:35:36;11.00;99.90
15241;DHT22;7723;52.170;9.978;2023-03-14T02:38:10;11.00;99.90
15241;DHT22;7723;52.170;9.978;2023-03-14T02:40:40;11.00;99.90
15241;DHT22;7723;52.170;9.978;2023-03-14T02:43:09;11.10;99.90
15241;DHT22;7723;52.170;9.978;2023-03-14T02:45:40;11.00;99.90
15241;DHT22;7723;52.170;9.978;2023-03-14T02:48:11;10.90;99.90
15241;DHT22;7723;52.170;9.978;2023-03-14T02:50:39;11.00;99.90
15241;DHT22;7723;52.170;9.978;2023-03-14T02:53:06;11.00;99.90
15241;DHT22;7723;52.170;9.978;2023-03-14T02:55:33;11.00;99.90
15241;DHT22;7723;52.170;9.978;2023-03-14T02:58:00;10.90;99.90
15241;DHT22;7723;52.170;9.978;2023-03-14T03:00:29;11.00;99.90
15241;DHT22;7723;52.170;9.978;2023-03-14T03:02:57;11.00;99.90
15241;DHT22;7723;52.170;9.978;2023-03-14T03:05:24;11.00;99.90
15241;DHT22;7723;52.170;9.978;2023-03-14T03:07:51;11.00;99.90
15241;DHT22;7723;52.170;9.978;2023-03-14T03:10:18;10.90;99.90
15241;DHT22;7723;52.170;9.978;2023-03-14T03:12:45;11.00;99.90
15241;DHT22;7723;52.170;9.978;2023-03-14T03:15:13;11.00;99.90
15241;DHT22;7723;52.170;9.978;2023-03-14T03:17:41;11.00;99.90
15241;DHT22;7723;52.170;9.978;2023-03-14T03:20:09;11.10;99.90
15241;DHT22;7723;52.170;9.978;2023-03-14T03:22:37;11.00;99.90
15241;DHT22;7723;52.170;9.978;2023-03-14T03:25:06;11.00;99.90
15241;DHT22;7723;52.170;9.978;2023-03-14T03:27:35;11.00;99.90
15241;DHT22;7723;52.170;9.978;2023-03-14T03:30:03;10.90;99.90
15241;DHT22;7723;52.170;9.978;2023-03-14T03:32:31;10.80;99.90
15241;DHT22;7723;52.170;9.978;2023-03-14T03:35:00;10.80;99.90
15241;DHT22;7723;52.170;9.978;2023-03-14T03:37:27;10.80;99.90
15241;DHT22;7723;52.170;9.978;2023-03-14T03:39:54;10.80;99.90
15241;DHT22;7723;52.170;9.978;2023-03-14T03:42:21;10.80;99.90
15241;DHT22;7723;52.170;9.978;2023-03-14T03:44:48;10.80;99.90
15241;DHT22;7723;52.170;9.978;2023-03-14T03:47:15;10.80;99.90
15241;DHT22;7723;52.170;9.978;2023-03-14T03:49:42;10.70;99.90
15241;DHT22;7723;52.170;9.978;2023-03-14T03:52:11;10.70;99.90
15241;DHT22;7723;52.170;9.978;2023-03-14T03:54:38;10.70;99.90
15241;DHT22;7723;52.170;9.978;2023-03-14T03:57:05;10.70;99.90
15241;DHT22;7723;52.170;9.978;2023-03-14T03:59:32;10.80;99.90
15241;DHT22;7723;52.170;9.978;2023-03-14T04:01:59;10.80;99.90
15241;DHT22;7723;52.170;9.978;2023-03-14T04:04:26;10.90;99.90
15241;DHT22;7723;52.170;9.978;2023-03-14T04:06:53;10.90;99.90
15241;DHT22;7723;52.170;9.978;2023-03-14T04:09:22;10.90;99.90
15241;DHT22;7723;52.170;9.978;2023-03-14T04:11:49;10.90;99.90
15241;DHT22;7723;52.170;9.978;2023-03-14T04:14:16;10.80;99.90
15241;DHT22;7723;52.170;9.978;2023-03-14T04:16:43;10.70;99.90
15241;DHT22;7723;52.170;9.978;2023-03-14T04:19:10;10.50;99.90
15241;DHT22;7723;52.170;9.978;2023-03-14T04:21:37;10.20;99.90
15241;DHT22;7723;52.170;9.978;2023-03-14T04:24:10;10.00;99.90
15241;DHT22;7723;52.170;9.978;2023-03-14T04:26:38;9.90;99.90
15241;DHT22;7723;52.170;9.978;2023-03-14T04:29:05;9.80;99.90
15241;DHT22;7723;52.170;9.978;2023-03-14T04:31:33;9.70;99.90
15241;DHT22;7723;52.170;9.978;2023-03-14T04:34:00;9.60;99.90
15241;DHT22;7723;52.170;9.978;2023-03-14T04:36:27;9.50;99.90
15241;DHT22;7723;52.170;9.978;2023-03-14T04:38:54;9.40;99.90
15241;DHT22;7723;52.170;9.978;2023-03-14T04:41:21;9.30;99.90
15241;DHT22;7723;52.170;9.978;2023-03-14T04:43:49;9.30;99.90
15241;DHT22;7723;52.170;9.978;2023-03-14T04:46:17;9.30;99.90
15241;DHT22;7723;52.170;9.978;2023-03-14T04:48:44;9.20;99.90
15241;DHT22;7723;52.170;9.978;2023-03-14T04:51:11;9.20;99.90
15241;DHT22;7723;52.170;9.978;2023-03-14T04:53:38;9.10;99.90
15241;DHT22;7723;52.170;9.978;2023-03-14T04:56:06;9.10;99.90
15241;DHT22;7723;52.170;9.978;2023-03-14T04:58:33;9.20;99.90
15241;DHT22;7723;52.170;9.978;2023-03-14T05:01:04;9.20;99.90
15241;DHT22;7723;52.170;9.978;2023-03-14T05:03:31;9.30;99.90
15241;DHT22;7723;52.170;9.978;2023-03-14T05:05:58;9.30;99.90
15241;DHT22;7723;52.170;9.978;2023-03-14T05:08:26;9.30;99.90
15241;DHT22;7723;52.170;9.978;2023-03-14T05:10:53;9.30;99.90
15241;DHT22;7723;52.170;9.978;2023-03-14T05:13:20;9.30;99.90
15241;DHT22;7723;52.170;9.978;2023-03-14T05:15:47;9.30;99.90
15241;DHT22;7723;52.170;9.978;2023-03-14T05:18:18;9.30;99.90
15241;DHT22;7723;52.170;9.978;2023-03-14T05:20:45;9.40;99.90
15241;DHT22;7723;52.170;9.978;2023-03-14T05:23:12;9.50;99.90
15241;DHT22;7723;52.170;9.978;2023-03-14T05:25:39;9.50;99.90
15241;DHT22;7723;52.170;9.978;2023-03-14T05:28:06;9.50;99.90
15241;DHT22;7723;52.170;9.978;2023-03-14T05:30:34;9.50;99.90
15241;DHT22;7723;52.170;9.978;2023-03-14T05:33:01;9.50;99.90
15241;DHT22;7723;52.170;9.978;2023-03-14T05:35:29;9.50;99.90
15241;DHT22;7723;52.170;9.978;2023-03-14T05:37:56;9.40;99.90
15241;DHT22;7723;52.170;9.978;2023-03-14T05:40:23;9.30;99.90
15241;DHT22;7723;52.170;9.978;2023-03-14T05:42:51;9.20;99.90
15241;DHT22;7723;52.170;9.978;2023-03-14T05:45:18;9.20;99.90
15241;DHT22;7723;52.170;9.978;2023-03-14T05:47:45;9.10;99.90
15241;DHT22;7723;52.170;9.978;2023-03-14T05:50:12;9.10;99.90
15241;DHT22;7723;52.170;9.978;2023-03-14T05:52:40;9.10;99.90
15241;DHT22;7723;52.170;9.978;2023-03-14T05:55:08;9.10;99.90
15241;DHT22;7723;52.170;9.978;2023-03-14T05:57:35;9.20;99.90
15241;DHT22;7723;52.170;9.978;2023-03-14T06:00:02;9.20;99.90
15241;DHT22;7723;52.170;9.978;2023-03-14T06:02:30;9.10;99.90
15241;DHT22;7723;52.170;9.978;2023-03-14T06:04:57;9.10;99.90
15241;DHT22;7723;52.170;9.978;2023-03-14T06:07:24;9.10;99.90
15241;DHT22;7723;52.170;9.978;2023-03-14T06:09:52;9.20;99.90
15241;DHT22;7723;52.170;9.978;2023-03-14T06:12:19;9.20;99.90
15241;DHT22;7723;52.170;9.978;2023-03-14T06:14:46;9.20;99.90
15241;DHT22;7723;52.170;9.978;2023-03-14T06:17:13;9.20;99.90
15241;DHT22;7723;52.170;9.978;2023-03-14T06:19:40;9.20;99.90
15241;DHT22;7723;52.170;9.978;2023-03-14T06:22:07;9.30;99.90
15241;DHT22;7723;52.170;9.978;2023-03-14T06:24:34;9.40;99.90
15241;DHT22;7723;52.170;9.978;2023-03-14T06:27:03;9.50;99.90
15241;DHT22;7723;52.170;9.978;2023-03-14T06:29:30;9.60;99.90
15241;DHT22;7723;52.170;9.978;2023-03-14T06:31:57;9.70;99.90
15241;DHT22;7723;52.170;9.978;2023-03-14T06:34:24;9.70;99.90
15241;DHT22;7723;52.170;9.978;2023-03-14T06:36:52;9.60;99.90
15241;DHT22;7723;52.170;9.978;2023-03-14T06:39:19;9.70;99.90
15241;DHT22;7723;52.170;9.978;2023-03-14T06:41:46;9.70;99.90
15241;DHT22;7723;52.170;9.978;2023-03-14T06:44:14;9.80;99.90
15241;DHT22;7723;52.170;9.978;2023-03-14T06:46:41;9.90;99.90
15241;DHT22;7723;52.170;9.978;2023-03-14T06:49:08;9.90;99.90
15241;DHT22;7723;52.170;9.978;2023-03-14T06:51:35;9.90;99.90
15241;DHT22;7723;52.170;9.978;2023-03-14T06:54:03;9.90;99.90
15241;DHT22;7723;52.170;9.978;2023-03-14T06:56:30;9.90;99.90
15241;DHT22;7723;52.170;9.978;2023-03-14T06:58:57;10.00;99.90
15241;DHT22;7723;52.170;9.978;2023-03-14T07:01:27;10.00;99.90
15241;DHT22;7723;52.170;9.978;2023-03-14T07:03:55;10.00;99.90
15241;DHT22;7723;52.170;9.978;2023-03-14T07:06:22;10.00;99.90
15241;DHT22;7723;52.170;9.978;2023-03-14T07:08:49;10.70;99.90
15241;DHT22;7723;52.170;9.978;2023-03-14T07:11:16;10.00;99.90
15241;DHT22;7723;52.170;9.978;2023-03-14T07:13:43;10.00;99.90
15241;DHT22;7723;52.170;9.978;2023-03-14T07:16:10;9.90;99.90
15241;DHT22;7723;52.170;9.978;2023-03-14T07:18:39;10.00;99.90
15241;DHT22;7723;52.170;9.978;2023-03-14T07:21:07;10.00;99.90
15241;DHT22;7723;52.170;9.978;2023-03-14T07:23:34;10.00;99.90
15241;DHT22;7723;52.170;9.978;2023-03-14T07:26:02;10.00;99.90
15241;DHT22;7723;52.170;9.978;2023-03-14T07:28:29;10.10;99.90
15241;DHT22;7723;52.170;9.978;2023-03-14T07:30:56;10.40;99.90
15241;DHT22;7723;52.170;9.978;2023-03-14T07:33:23;10.50;99.90
15241;DHT22;7723;52.170;9.978;2023-03-14T07:35:52;10.60;99.90
15241;DHT22;7723;52.170;9.978;2023-03-14T07:38:19;10.60;99.90
15241;DHT22;7723;52.170;9.978;2023-03-14T07:40:46;10.50;99.90
15241;DHT22;7723;52.170;9.978;2023-03-14T07:43:14;10.60;99.90
15241;DHT22;7723;52.170;9.978;2023-03-14T07:45:41;11.00;99.90
15241;DHT22;7723;52.170;9.978;2023-03-14T07:48:08;11.40;99.90
15241;DHT22;7723;52.170;9.978;2023-03-14T07:50:35;11.70;99.90
15241;DHT22;7723;52.170;9.978;2023-03-14T07:53:03;11.70;99.90
15241;DHT22;7723;52.170;9.978;2023-03-14T07:55:30;11.90;99.90
15241;DHT22;7723;52.170;9.978;2023-03-14T07:57:58;11.90;99.90
15241;DHT22;7723;52.170;9.978;2023-03-14T08:00:25;11.80;99.90
15241;DHT22;7723;52.170;9.978;2023-03-14T08:02:52;11.80;99.90
15241;DHT22;7723;52.170;9.978;2023-03-14T08:05:19;11.60;99.90
15241;DHT22;7723;52.170;9.978;2023-03-14T08:07:46;11.60;99.90
15241;DHT22;7723;52.170;9.978;2023-03-14T08:10:15;11.60;99.90
15241;DHT22;7723;52.170;9.978;2023-03-14T08:12:48;11.60;99.90
15241;DHT22;7723;52.170;9.978;2023-03-14T08:15:15;11.50;99.90
15241;DHT22;7723;52.170;9.978;2023-03-14T08:17:42;11.60;99.90
15241;DHT22;7723;52.170;9.978;2023-03-14T08:20:10;11.60;99.90
15241;DHT22;7723;52.170;9.978;2023-03-14T08:22:38;11.70;99.90
15241;DHT22;7723;52.170;9.978;2023-03-14T08:25:06;11.80;99.90
15241;DHT22;7723;52.170;9.978;2023-03-14T08:27:35;11.80;99.90
15241;DHT22;7723;52.170;9.978;2023-03-14T08:30:05;11.90;99.90
15241;DHT22;7723;52.170;9.978;2023-03-14T08:32:32;12.00;99.90
15241;DHT22;7723;52.170;9.978;2023-03-14T08:34:59;11.80;99.90
15241;DHT22;7723;52.170;9.978;2023-03-14T08:37:27;12.00;99.90
15241;DHT22;7723;52.170;9.978;2023-03-14T08:39:54;12.00;99.90
15241;DHT22;7723;52.170;9.978;2023-03-14T08:42:21;11.90;99.90
15241;DHT22;7723;52.170;9.978;2023-03-14T08:44:50;11.90;99.90
15241;DHT22;7723;52.170;9.978;2023-03-14T08:47:18;11.80;99.90
15241;DHT22;7723;52.170;9.978;2023-03-14T08:49:45;11.70;99.90
15241;DHT22;7723;52.170;9.978;2023-03-14T08:52:12;11.60;99.90
15241;DHT22;7723;52.170;9.978;2023-03-14T08:54:40;11.60;99.90
15241;DHT22;7723;52.170;9.978;2023-03-14T08:57:07;11.60;99.90
15241;DHT22;7723;52.170;9.978;2023-03-14T08:59:34;11.60;99.90
15241;DHT22;7723;52.170;9.978;2023-03-14T09:02:03;11.70;99.90
15241;DHT22;7723;52.170;9.978;2023-03-14T09:04:30;11.70;99.90
15241;DHT22;7723;52.170;9.978;2023-03-14T09:06:57;11.90;99.90
15241;DHT22;7723;52.170;9.978;2023-03-14T09:09:25;11.90;99.90
15241;DHT22;7723;52.170;9.978;2023-03-14T09:11:53;11.80;99.90
15241;DHT22;7723;52.170;9.978;2023-03-14T09:14:20;11.80;99.90
15241;DHT22;7723;52.170;9.978;2023-03-14T09:16:47;11.80;99.90
15241;DHT22;7723;52.170;9.978;2023-03-14T09:19:16;11.80;99.90
15241;DHT22;7723;52.170;9.978;2023-03-14T09:21:43;11.80;99.90
15241;DHT22;7723;52.170;9.978;2023-03-14T09:24:10;11.70;99.90
15241;DHT22;7723;52.170;9.978;2023-03-14T09:26:37;12.50;99.90
15241;DHT22;7723;52.170;9.978;2023-03-14T09:29:04;11.80;99.90
15241;DHT22;7723;52.170;9.978;2023-03-14T09:31:31;11.80;99.90
15241;DHT22;7723;52.170;9.978;2023-03-14T09:33:58;11.90;99.90
15241;DHT22;7723;52.170;9.978;2023-03-14T09:36:27;11.90;99.90
15241;DHT22;7723;52.170;9.978;2023-03-14T09:38:54;11.90;99.90
15241;DHT22;7723;52.170;9.978;2023-03-14T09:41:24;11.80;99.90
15241;DHT22;7723;52.170;9.978;2023-03-14T09:43:57;11.60;99.90
15241;DHT22;7723;52.170;9.978;2023-03-14T09:46:27;11.70;99.90
15241;DHT22;7723;52.170;9.978;2023-03-14T09:48:55;11.80;99.90
15241;DHT22;7723;52.170;9.978;2023-03-14T09:51:23;12.00;99.90
15241;DHT22;7723;52.170;9.978;2023-03-14T09:53:52;12.30;99.90
15241;DHT22;7723;52.170;9.978;2023-03-14T09:56:21;12.50;99.90
15241;DHT22;7723;52.170;9.978;2023-03-14T09:58:53;12.70;99.90
15241;DHT22;7723;52.170;9.978;2023-03-14T10:01:25;12.60;99.90
15241;DHT22;7723;52.170;9.978;2023-03-14T10:03:55;12.60;99.90
15241;DHT22;7723;52.170;9.978;2023-03-14T10:06:24;12.60;99.90
15241;DHT22;7723;52.170;9.978;2023-03-14T10:08:54;12.60;99.90
15241;DHT22;7723;52.170;9.978;2023-03-14T10:11:23;12.60;99.90
15241;DHT22;7723;52.170;9.978;2023-03-14T10:14:03;12.70;99.90
15241;DHT22;7723;52.170;9.978;2023-03-14T10:16:31;12.70;99.90
15241;DHT22;7723;52.170;9.978;2023-03-14T10:19:02;12.80;99.90
15241;DHT22;7723;52.170;9.978;2023-03-14T10:21:32;12.80;99.90
15241;DHT22;7723;52.170;9.978;2023-03-14T10:24:16;12.80;99.90
15241;DHT22;7723;52.170;9.978;2023-03-14T10:26:48;12.80;99.90
15241;DHT22;7723;52.170;9.978;2023-03-14T10:29:15;13.00;99.90
15241;DHT22;7723;52.170;9.978;2023-03-14T10:31:49;13.20;99.90
15241;DHT22;7723;52.170;9.978;2023-03-14T10:34:22;13.20;99.90
15241;DHT22;7723;52.170;9.978;2023-03-14T10:36:52;13.10;99.90
15241;DHT22;7723;52.170;9.978;2023-03-14T10:39:33;13.00;99.90
15241;DHT22;7723;52.170;9.978;2023-03-14T10:42:06;13.10;99.90
15241;DHT22;7723;52.170;9.978;2023-03-14T10:44:39;13.00;99.90
15241;DHT22;7723;52.170;9.978;2023-03-14T10:47:12;12.90;99.90
15241;DHT22;7723;52.170;9.978;2023-03-14T10:49:41;12.90;99.90
15241;DHT22;7723;52.170;9.978;2023-03-14T10:52:15;12.80;99.90
15241;DHT22;7723;52.170;9.978;2023-03-14T10:54:48;13.00;99.90
15241;DHT22;7723;52.170;9.978;2023-03-14T10:57:19;13.10;99.90
15241;DHT22;7723;52.170;9.978;2023-03-14T10:59:46;13.20;99.90
15241;DHT22;7723;52.170;9.978;2023-03-14T11:02:44;13.20;99.90
15241;DHT22;7723;52.170;9.978;2023-03-14T11:05:23;13.30;99.90
15241;DHT22;7723;52.170;9.978;2023-03-14T11:07:54;13.30;99.90
15241;DHT22;7723;52.170;9.978;2023-03-14T11:10:29;13.50;99.90
15241;DHT22;7723;52.170;9.978;2023-03-14T11:13:08;13.40;99.90
15241;DHT22;7723;52.170;9.978;2023-03-14T11:15:43;13.20;99.90
15241;DHT22;7723;52.170;9.978;2023-03-14T11:18:44;13.10;99.90
15241;DHT22;7723;52.170;9.978;2023-03-14T11:21:15;13.00;99.90
15241;DHT22;7723;52.170;9.978;2023-03-14T11:23:50;12.90;99.90
15241;DHT22;7723;52.170;9.978;2023-03-14T11:26:28;12.80;99.90
15241;DHT22;7723;52.170;9.978;2023-03-14T11:29:07;12.70;99.90
15241;DHT22;7723;52.170;9.978;2023-03-14T11:31:39;12.70;99.90
15241;DHT22;7723;52.170;9.978;2023-03-14T11:34:15;12.70;99.90
15241;DHT22;7723;52.170;9.978;2023-03-14T11:36:47;12.80;99.90
15241;DHT22;7723;52.170;9.978;2023-03-14T11:39:18;12.80;99.90
15241;DHT22;7723;52.170;9.978;2023-03-14T11:41:48;12.80;99.90
15241;DHT22;7723;52.170;9.978;2023-03-14T11:44:19;12.70;99.90
15241;DHT22;7723;52.170;9.978;2023-03-14T11:46:50;12.60;99.90
15241;DHT22;7723;52.170;9.978;2023-03-14T11:49:27;12.50;99.90
15241;DHT22;7723;52.170;9.978;2023-03-14T11:52:00;12.40;99.90
15241;DHT22;7723;52.170;9.978;2023-03-14T11:54:34;12.30;99.90
15241;DHT22;7723;52.170;9.978;2023-03-14T11:57:04;10.90;99.90
15241;DHT22;7723;52.170;9.978;2023-03-14T11:59:38;8.80;99.90
15241;DHT22;7723;52.170;9.978;2023-03-14T12:02:14;7.60;99.90
15241;DHT22;7723;52.170;9.978;2023-03-14T12:04:52;7.20;99.90
15241;DHT22;7723;52.170;9.978;2023-03-14T12:07:23;6.90;99.90
15241;DHT22;7723;52.170;9.978;2023-03-14T12:09:54;6.80;99.90
15241;DHT22;7723;52.170;9.978;2023-03-14T12:12:26;6.70;99.90
15241;DHT22;7723;52.170;9.978;2023-03-14T12:14:56;6.80;99.90
15241;DHT22;7723;52.170;9.978;2023-03-14T12:17:26;6.70;99.90
15241;DHT22;7723;52.170;9.978;2023-03-14T12:20:03;6.70;99.90
15241;DHT22;7723;52.170;9.978;2023-03-14T12:22:35;6.70;99.90
15241;DHT22;7723;52.170;9.978;2023-03-14T12:25:14;6.60;99.90
15241;DHT22;7723;52.170;9.978;2023-03-14T12:27:47;6.50;99.90
15241;DHT22;7723;52.170;9.978;2023-03-14T12:30:23;6.40;99.90
15241;DHT22;7723;52.170;9.978;2023-03-14T12:33:13;6.40;99.90
15241;DHT22;7723;52.170;9.978;2023-03-14T12:35:47;6.10;99.90
15241;DHT22;7723;52.170;9.978;2023-03-14T12:38:18;5.90;99.90
15241;DHT22;7723;52.170;9.978;2023-03-14T12:40:57;5.90;99.90
15241;DHT22;7723;52.170;9.978;2023-03-14T12:43:29;5.80;99.90
15241;DHT22;7723;52.170;9.978;2023-03-14T12:46:19;5.70;99.90
15241;DHT22;7723;52.170;9.978;2023-03-14T12:48:49;5.50;99.90
15241;DHT22;7723;52.170;9.978;2023-03-14T12:51:18;5.30;99.90
15241;DHT22;7723;52.170;9.978;2023-03-14T12:54:01;5.10;99.90
15241;DHT22;7723;52.170;9.978;2023-03-14T12:56:52;4.90;99.90
15241;DHT22;7723;52.170;9.978;2023-03-14T12:59:33;4.80;99.90
15241;DHT22;7723;52.170;9.978;2023-03-14T13:02:11;4.80;99.90
15241;DHT22;7723;52.170;9.978;2023-03-14T13:04:45;4.70;99.90
15241;DHT22;7723;52.170;9.978;2023-03-14T13:07:15;4.70;99.90
15241;DHT22;7723;52.170;9.978;2023-03-14T13:10:03;4.60;99.90
15241;DHT22;7723;52.170;9.978;2023-03-14T13:12:38;4.50;99.90
15241;DHT22;7723;52.170;9.978;2023-03-14T13:15:18;4.50;99.90
15241;DHT22;7723;52.170;9.978;2023-03-14T13:17:47;4.60;99.90
15241;DHT22;7723;52.170;9.978;2023-03-14T13:20:20;4.70;99.90
15241;DHT22;7723;52.170;9.978;2023-03-14T13:22:49;4.60;99.90
15241;DHT22;7723;52.170;9.978;2023-03-14T13:25:17;4.60;99.90
15241;DHT22;7723;52.170;9.978;2023-03-14T13:27:47;4.60;99.90
15241;DHT22;7723;52.170;9.978;2023-03-14T13:30:21;4.70;99.90
15241;DHT22;7723;52.170;9.978;2023-03-14T13:32:50;4.70;99.90
15241;DHT22;7723;52.170;9.978;2023-03-14T13:35:20;4.70;99.90
15241;DHT22;7723;52.170;9.978;2023-03-14T13:37:53;4.70;99.90
15241;DHT22;7723;52.170;9.978;2023-03-14T13:40:25;4.70;99.90
15241;DHT22;7723;52.170;9.978;2023-03-14T13:43:05;4.90;99.90
15241;DHT22;7723;52.170;9.978;2023-03-14T13:45:44;4.90;99.90
15241;DHT22;7723;52.170;9.978;2023-03-14T13:48:13;4.90;99.90
15241;DHT22;7723;52.170;9.978;2023-03-14T13:50:46;5.00;99.90
15241;DHT22;7723;52.170;9.978;2023-03-14T13:53:13;5.00;99.90
15241;DHT22;7723;52.170;9.978;2023-03-14T13:55:40;4.90;99.90
15241;DHT22;7723;52.170;9.978;2023-03-14T13:58:13;4.90;99.90
15241;DHT22;7723;52.170;9.978;2023-03-14T14:00:56;4.90;99.90
15241;DHT22;7723;52.170;9.978;2023-03-14T14:03:23;5.00;99.90
15241;DHT22;7723;52.170;9.978;2023-03-14T14:05:51;4.00;99.90
15241;DHT22;7723;52.170;9.978;2023-03-14T14:08:18;5.00;99.90
15241;DHT22;7723;52.170;9.978;2023-03-14T14:10:47;5.90;99.90
15241;DHT22;7723;52.170;9.978;2023-03-14T14:13:17;5.10;99.90
15241;DHT22;7723;52.170;9.978;2023-03-14T14:15:49;5.00;99.90
15241;DHT22;7723;52.170;9.978;2023-03-14T14:18:22;5.00;99.90
15241;DHT22;7723;52.170;9.978;2023-03-14T14:20:51;4.90;99.90
15241;DHT22;7723;52.170;9.978;2023-03-14T14:23:20;5.00;99.90
15241;DHT22;7723;52.170;9.978;2023-03-14T14:25:51;5.20;99.90
15241;DHT22;7723;52.170;9.978;2023-03-14T14:28:25;5.20;99.90
15241;DHT22;7723;52.170;9.978;2023-03-14T14:31:02;5.20;99.90
15241;DHT22;7723;52.170;9.978;2023-03-14T14:33:39;5.10;99.90
15241;DHT22;7723;52.170;9.978;2023-03-14T14:36:16;5.20;99.90
15241;DHT22;7723;52.170;9.978;2023-03-14T14:38:52;5.20;99.90
15241;DHT22;7723;52.170;9.978;2023-03-14T14:41:19;5.20;99.90
15241;DHT22;7723;52.170;9.978;2023-03-14T14:43:46;5.10;99.90
15241;DHT22;7723;52.170;9.978;2023-03-14T14:46:17;5.00;99.90
15241;DHT22;7723;52.170;9.978;2023-03-14T14:48:47;5.00;99.90
15241;DHT22;7723;52.170;9.978;2023-03-14T14:51:25;4.90;99.90
15241;DHT22;7723;52.170;9.978;2023-03-14T14:54:09;4.90;99.90
15241;DHT22;7723;52.170;9.978;2023-03-14T14:56:37;4.80;99.90
15241;DHT22;7723;52.170;9.978;2023-03-14T14:59:06;4.70;99.90
15241;DHT22;7723;52.170;9.978;2023-03-14T15:01:35;4.70;99.90
15241;DHT22;7723;52.170;9.978;2023-03-14T15:04:11;4.70;99.90
15241;DHT22;7723;52.170;9.978;2023-03-14T15:06:40;4.50;99.90
15241;DHT22;7723;52.170;9.978;2023-03-14T15:09:08;4.90;99.90
15241;DHT22;7723;52.170;9.978;2023-03-14T15:11:36;4.90;99.90
15241;DHT22;7723;52.170;9.978;2023-03-14T15:14:03;4.90;99.90
15241;DHT22;7723;52.170;9.978;2023-03-14T15:16:32;4.90;99.90
15241;DHT22;7723;52.170;9.978;2023-03-14T15:19:01;4.90;99.90
15241;DHT22;7723;52.170;9.978;2023-03-14T15:21:32;4.90;99.90
15241;DHT22;7723;52.170;9.978;2023-03-14T15:23:59;4.90;99.90
15241;DHT22;7723;52.170;9.978;2023-03-14T15:26:27;4.90;99.90
15241;DHT22;7723;52.170;9.978;2023-03-14T15:28:54;4.90;99.90
15241;DHT22;7723;52.170;9.978;2023-03-14T15:31:22;5.00;99.90
15241;DHT22;7723;52.170;9.978;2023-03-14T15:33:49;5.00;99.90
15241;DHT22;7723;52.170;9.978;2023-03-14T15:36:22;5.00;99.90
15241;DHT22;7723;52.170;9.978;2023-03-14T15:38:52;5.10;99.90
15241;DHT22;7723;52.170;9.978;2023-03-14T15:41:20;5.10;99.90
15241;DHT22;7723;52.170;9.978;2023-03-14T15:43:48;5.10;99.90
15241;DHT22;7723;52.170;9.978;2023-03-14T15:46:16;5.20;99.90
15241;DHT22;7723;52.170;9.978;2023-03-14T15:48:43;5.20;99.90
15241;DHT22;7723;52.170;9.978;2023-03-14T15:51:11;5.30;99.90
15241;DHT22;7723;52.170;9.978;2023-03-14T15:53:38;5.40;99.90
15241;DHT22;7723;52.170;9.978;2023-03-14T15:56:10;5.50;99.90
15241;DHT22;7723;52.170;9.978;2023-03-14T15:58:37;5.50;81.90
15241;DHT22;7723;52.170;9.978;2023-03-14T16:01:06;5.50;57.60
15241;DHT22;7723;52.170;9.978;2023-03-14T16:03:34;5.40;31.70
15241;DHT22;7723;52.170;9.978;2023-03-14T16:06:01;5.30;15.20
15241;DHT22;7723;52.170;9.978;2023-03-14T16:08:28;4.80;16.20
15241;DHT22;7723;52.170;9.978;2023-03-14T16:10:57;5.10;5.90